Time,TemperatureF,DewpointF,PressureIn,WindDirection,WindDirectionDegrees,WindSpeedMPH,WindSpeedGustMPH,Humidity,HourlyPrecipIn,Conditions,Clouds,dailyrainin,SoftwareType,DateUTC
2013-01-10 00:01:00,45.0,27.0,-100.00,North,2,6.0,9.0,50,-99.99,,,-99.99,,2013-01-10 08:01:00,
2013-01-10 00:11:00,43.0,28.0,-100.00,NNE,14,3.0,6.0,55,-99.99,,,-99.99,,2013-01-10 08:11:00,
2013-01-10 00:22:00,43.0,28.0,-100.00,North,2,5.0,9.0,56,-99.99,,,-99.99,,2013-01-10 08:22:00,
2013-01-10 00:32:00,43.0,28.0,-100.00,North,350,6.0,10.0,56,-99.99,,,-99.99,,2013-01-10 08:32:00,
2013-01-10 00:42:00,44.0,28.0,-100.00,NNW,348,6.0,10.0,54,-99.99,,,-99.99,,2013-01-10 08:42:00,
2013-01-10 00:52:00,45.0,28.0,-100.00,North,351,6.0,10.0,51,-99.99,,,-99.99,,2013-01-10 08:52:00,
2013-01-10 01:02:00,43.0,28.0,-100.00,NNE,18,3.0,6.0,56,-99.99,,,-99.99,,2013-01-10 09:02:00,
2013-01-10 01:12:00,43.0,29.0,-100.00,NW,320,3.0,5.0,57,-99.99,,,-99.99,,2013-01-10 09:12:00,
2013-01-10 01:22:00,42.0,29.0,-100.00,North,5,2.0,6.0,59,-99.99,,,-99.99,,2013-01-10 09:22:00,
2013-01-10 01:32:00,42.0,30.0,-100.00,North,359,3.0,6.0,62,-99.99,,,-99.99,,2013-01-10 09:32:00,
2013-01-10 01:42:00,42.0,30.0,-100.00,North,4,4.0,7.0,62,-99.99,,,-99.99,,2013-01-10 09:42:00,
2013-01-10 01:52:00,40.0,30.0,-100.00,East,97,2.0,5.0,66,-99.99,,,-99.99,,2013-01-10 09:52:00,
2013-01-10 02:02:00,39.0,30.0,-100.00,North,355,2.0,4.0,69,-99.99,,,-99.99,,2013-01-10 10:02:00,
2013-01-10 02:11:00,38.0,29.0,-100.00,NNE,14,2.0,3.0,71,-99.99,,,-99.99,,2013-01-10 10:11:00,
2013-01-10 02:22:00,38.0,29.0,-100.00,NE,54,1.0,4.0,71,-99.99,,,-99.99,,2013-01-10 10:22:00,
2013-01-10 02:32:00,38.0,29.0,-100.00,North,357,3.0,4.0,71,-99.99,,,-99.99,,2013-01-10 10:32:00,
2013-01-10 02:42:00,39.0,29.0,-100.00,North,356,2.0,4.0,66,-99.99,,,-99.99,,2013-01-10 10:42:00,
2013-01-10 02:52:00,38.0,29.0,-100.00,NE,35,2.0,5.0,69,-99.99,,,-99.99,,2013-01-10 10:52:00,
2013-01-10 03:02:00,38.0,29.0,-100.00,NNE,30,2.0,5.0,69,-99.99,,,-99.99,,2013-01-10 11:02:00,
2013-01-10 03:12:00,38.0,29.0,-100.00,North,0,2.0,4.0,69,-99.99,,,-99.99,,2013-01-10 11:12:00,
2013-01-10 03:22:00,38.0,29.0,-100.00,North,354,1.0,3.0,69,-99.99,,,-99.99,,2013-01-10 11:22:00,
2013-01-10 03:32:00,37.0,29.0,-100.00,NNE,15,2.0,4.0,72,-99.99,,,-99.99,,2013-01-10 11:32:00,
2013-01-10 03:42:00,36.0,29.0,-100.00,East,86,1.0,2.0,75,-99.99,,,-99.99,,2013-01-10 11:42:00,
2013-01-10 03:52:00,36.0,30.0,-100.00,WNW,282,2.0,4.0,78,-99.99,,,-99.99,,2013-01-10 11:52:00,
2013-01-10 04:02:00,37.0,31.0,-100.00,NNW,341,2.0,6.0,78,-99.99,,,-99.99,,2013-01-10 12:02:00,
2013-01-10 04:12:00,38.0,33.0,-100.00,NNE,31,5.0,8.0,81,-99.99,,,-99.99,,2013-01-10 12:12:00,
2013-01-10 04:22:00,39.0,33.0,-100.00,NNE,22,5.0,8.0,79,-99.99,,,-99.99,,2013-01-10 12:22:00,
2013-01-10 04:32:00,40.0,35.0,-100.00,NE,40,1.0,4.0,82,-99.99,,,-99.99,,2013-01-10 12:32:00,
2013-01-10 04:42:00,40.0,36.0,-100.00,SSE,164,2.0,4.0,84,-99.99,,,-99.99,,2013-01-10 12:42:00,
2013-01-10 04:52:00,40.0,36.0,-100.00,SSW,206,2.0,4.0,85,-99.99,,,-99.99,,2013-01-10 12:52:00,
2013-01-10 05:02:00,41.0,37.0,-100.00,WNW,302,0.0,3.0,87,-99.99,,,-99.99,,2013-01-10 13:02:00,
2013-01-10 05:11:00,42.0,38.0,-100.00,WSW,258,4.0,10.0,87,-99.99,,,-99.99,,2013-01-10 13:11:00,
2013-01-10 05:22:00,42.0,38.0,-100.00,WSW,252,3.0,6.0,86,-99.99,,,-99.99,,2013-01-10 13:22:00,
2013-01-10 05:32:00,42.0,38.0,-100.00,WSW,248,5.0,8.0,86,-99.99,,,-99.99,,2013-01-10 13:32:00,
2013-01-10 05:42:00,42.0,38.0,-100.00,WSW,241,6.0,9.0,87,-99.99,,,-99.99,,2013-01-10 13:42:00,
2013-01-10 05:52:00,42.0,39.0,-100.00,SW,230,6.0,11.0,89,-99.99,,,-99.99,,2013-01-10 13:52:00,
2013-01-10 06:02:00,42.0,38.0,-100.00,SW,227,5.0,8.0,87,-99.99,,,-99.99,,2013-01-10 14:02:00,
2013-01-10 06:12:00,42.0,38.0,-100.00,WSW,255,3.0,8.0,86,-99.99,,,-99.99,,2013-01-10 14:12:00,
2013-01-10 06:22:00,42.0,39.0,-100.00,West,268,5.0,10.0,88,-99.99,,,-99.99,,2013-01-10 14:22:00,
2013-01-10 06:32:00,42.0,39.0,-100.00,WSW,246,4.0,7.0,89,-99.99,,,-99.99,,2013-01-10 14:32:00,
2013-01-10 06:43:00,42.0,39.0,-100.00,WSW,248,2.0,4.0,90,-99.99,,,-99.99,,2013-01-10 14:43:00,
2013-01-10 06:52:00,42.0,40.0,-100.00,West,263,5.0,10.0,91,-99.99,,,-99.99,,2013-01-10 14:52:00,
2013-01-10 07:02:00,42.0,39.0,-100.00,WSW,253,6.0,11.0,90,-99.99,,,-99.99,,2013-01-10 15:02:00,
2013-01-10 07:12:00,41.0,39.0,-100.00,SW,224,3.0,8.0,91,-99.99,,,-99.99,,2013-01-10 15:12:00,
2013-01-10 07:22:00,41.0,39.0,-100.00,SSW,194,2.0,5.0,92,-99.99,,,-99.99,,2013-01-10 15:22:00,
2013-01-10 07:32:00,41.0,39.0,-100.00,WSW,244,4.0,8.0,92,-99.99,,,-99.99,,2013-01-10 15:32:00,
2013-01-10 07:43:00,42.0,40.0,-100.00,SW,235,4.0,8.0,92,-99.99,,,-99.99,,2013-01-10 15:43:00,
2013-01-10 07:52:00,41.0,39.0,-100.00,SW,215,3.0,7.0,92,-99.99,,,-99.99,,2013-01-10 15:52:00,
2013-01-10 08:02:00,41.0,39.0,-100.00,SSW,201,2.0,4.0,93,-99.99,,,-99.99,,2013-01-10 16:02:00,
2013-01-10 08:12:00,42.0,40.0,-100.00,SSW,211,2.0,6.0,93,-99.99,,,-99.99,,2013-01-10 16:12:00,
2013-01-10 08:22:00,42.0,40.0,-100.00,SW,224,4.0,10.0,93,-99.99,,,-99.99,,2013-01-10 16:22:00,
2013-01-10 08:32:00,42.0,40.0,-100.00,SW,231,6.0,13.0,93,-99.99,,,-99.99,,2013-01-10 16:32:00,
2013-01-10 08:42:00,42.0,40.0,-100.00,SW,228,5.0,10.0,92,-99.99,,,-99.99,,2013-01-10 16:42:00,
2013-01-10 08:52:00,43.0,41.0,-100.00,SW,215,4.0,7.0,92,-99.99,,,-99.99,,2013-01-10 16:52:00,
2013-01-10 09:02:00,43.0,41.0,-100.00,SW,226,2.0,6.0,92,-99.99,,,-99.99,,2013-01-10 17:02:00,
2013-01-10 09:12:00,43.0,41.0,-100.00,WSW,244,8.0,13.0,91,-99.99,,,-99.99,,2013-01-10 17:12:00,
2013-01-10 09:22:00,43.0,40.0,-100.00,WSW,246,12.0,21.0,89,-99.99,,,-99.99,,2013-01-10 17:22:00,
2013-01-10 09:33:00,43.0,40.0,-100.00,WSW,250,8.0,15.0,88,-99.99,,,-99.99,,2013-01-10 17:33:00,
2013-01-10 09:42:00,43.0,40.0,-100.00,West,259,7.0,17.0,88,-99.99,,,-99.99,,2013-01-10 17:42:00,
2013-01-10 09:53:00,43.0,39.0,-100.00,West,281,13.0,28.0,86,-99.99,,,-99.99,,2013-01-10 17:53:00,
2013-01-10 10:03:00,43.0,39.0,-100.00,West,281,13.0,28.0,86,-99.99,,,-99.99,,2013-01-10 18:03:00,
2013-01-10 10:12:00,41.0,38.0,-100.00,WNW,284,15.0,26.0,88,-99.99,,,-99.99,,2013-01-10 18:12:00,
2013-01-10 10:22:00,41.0,38.0,-100.00,WNW,282,13.0,27.0,90,-99.99,,,-99.99,,2013-01-10 18:22:00,
2013-01-10 10:32:00,40.0,37.0,-100.00,West,280,12.0,26.0,90,-99.99,,,-99.99,,2013-01-10 18:32:00,
2013-01-10 10:43:00,40.0,37.0,-100.00,West,273,9.0,20.0,90,-99.99,,,-99.99,,2013-01-10 18:43:00,
2013-01-10 10:52:00,40.0,38.0,-100.00,WNW,293,8.0,20.0,91,-99.99,,,-99.99,,2013-01-10 18:52:00,
2013-01-10 11:02:00,40.0,38.0,-100.00,WNW,289,14.0,27.0,91,-99.99,,,-99.99,,2013-01-10 19:02:00,
2013-01-10 11:12:00,40.0,37.0,-100.00,WNW,297,14.0,31.0,90,-99.99,,,-99.99,,2013-01-10 19:12:00,
2013-01-10 11:22:00,39.0,36.0,-100.00,WNW,293,10.0,26.0,90,-99.99,,,-99.99,,2013-01-10 19:22:00,
2013-01-10 11:32:00,40.0,37.0,-100.00,WNW,292,15.0,26.0,90,-99.99,,,-99.99,,2013-01-10 19:32:00,
2013-01-10 11:42:00,40.0,37.0,-100.00,WNW,291,14.0,24.0,88,-99.99,,,-99.99,,2013-01-10 19:42:00,
2013-01-10 11:52:00,39.0,35.0,-100.00,WNW,283,12.0,20.0,87,-99.99,,,-99.99,,2013-01-10 19:52:00,
2013-01-10 12:02:00,40.0,36.0,-100.00,West,271,11.0,22.0,84,-99.99,,,-99.99,,2013-01-10 20:02:00,
2013-01-10 12:12:00,40.0,35.0,-100.00,West,276,11.0,22.0,81,-99.99,,,-99.99,,2013-01-10 20:12:00,
2013-01-10 12:22:00,39.0,33.0,-100.00,West,278,13.0,27.0,80,-99.99,,,-99.99,,2013-01-10 20:22:00,
2013-01-10 12:32:00,39.0,32.0,-100.00,WNW,283,14.0,26.0,76,-99.99,,,-99.99,,2013-01-10 20:32:00,
2013-01-10 12:42:00,39.0,30.0,-100.00,WNW,283,11.0,23.0,71,-99.99,,,-99.99,,2013-01-10 20:42:00,
2013-01-10 12:52:00,39.0,30.0,-100.00,WSW,254,11.0,22.0,71,-99.99,,,-99.99,,2013-01-10 20:52:00,
2013-01-10 13:02:00,39.0,31.0,-100.00,West,268,12.0,26.0,72,-99.99,,,-99.99,,2013-01-10 21:02:00,
2013-01-10 13:12:00,40.0,30.0,-100.00,West,264,11.0,26.0,68,-99.99,,,-99.99,,2013-01-10 21:12:00,
2013-01-10 13:22:00,40.0,31.0,-100.00,West,271,14.0,30.0,70,-99.99,,,-99.99,,2013-01-10 21:22:00,
2013-01-10 13:32:00,39.0,28.0,-100.00,West,277,15.0,24.0,65,-99.99,,,-99.99,,2013-01-10 21:32:00,
2013-01-10 13:42:00,39.0,28.0,-100.00,West,277,15.0,24.0,65,-99.99,,,-99.99,,2013-01-10 21:42:00,
2013-01-10 13:52:00,39.0,29.0,-100.00,West,278,15.0,23.0,66,-99.99,,,-99.99,,2013-01-10 21:52:00,
2013-01-10 14:02:00,39.0,29.0,-100.00,West,277,14.0,24.0,68,-99.99,,,-99.99,,2013-01-10 22:02:00,
2013-01-10 14:12:00,38.0,28.0,-100.00,West,272,13.0,26.0,68,-99.99,,,-99.99,,2013-01-10 22:12:00,
2013-01-10 14:23:00,39.0,30.0,-100.00,West,268,12.0,26.0,69,-99.99,,,-99.99,,2013-01-10 22:23:00,
2013-01-10 14:32:00,39.0,29.0,-100.00,West,263,13.0,25.0,68,-99.99,,,-99.99,,2013-01-10 22:32:00,
2013-01-10 14:43:00,39.0,29.0,-100.00,West,263,13.0,25.0,68,-99.99,,,-99.99,,2013-01-10 22:43:00,
2013-01-10 15:02:00,38.0,27.0,-100.00,West,274,14.0,22.0,64,-99.99,,,-99.99,,2013-01-10 23:02:00,
2013-01-10 15:12:00,38.0,27.0,-100.00,WSW,248,16.0,29.0,65,-99.99,,,-99.99,,2013-01-10 23:12:00,
2013-01-10 15:22:00,38.0,27.0,-100.00,WSW,250,17.0,27.0,65,-99.99,,,-99.99,,2013-01-10 23:22:00,
2013-01-10 15:32:00,38.0,28.0,-100.00,WSW,255,12.0,23.0,67,-99.99,,,-99.99,,2013-01-10 23:32:00,
2013-01-10 15:42:00,38.0,28.0,-100.00,WSW,254,15.0,26.0,66,-99.99,,,-99.99,,2013-01-10 23:42:00,
2013-01-10 15:52:00,38.0,28.0,-100.00,West,280,12.0,24.0,67,-99.99,,,-99.99,,2013-01-10 23:52:00,
2013-01-10 16:02:00,39.0,29.0,-100.00,West,266,11.0,25.0,68,-99.99,,,-99.99,,2013-01-11 00:02:00,
2013-01-10 16:12:00,38.0,29.0,-100.00,West,263,12.0,23.0,71,-99.99,,,-99.99,,2013-01-11 00:12:00,
2013-01-10 16:22:00,38.0,29.0,-100.00,West,274,13.0,25.0,71,-99.99,,,-99.99,,2013-01-11 00:22:00,
2013-01-10 16:32:00,37.0,26.0,-100.00,West,262,14.0,25.0,65,-99.99,,,-99.99,,2013-01-11 00:32:00,
2013-01-10 16:42:00,38.0,28.0,-100.00,West,259,11.0,20.0,66,-99.99,,,-99.99,,2013-01-11 00:42:00,
2013-01-10 16:52:00,37.0,27.0,-100.00,WSW,242,15.0,30.0,66,-99.99,,,-99.99,,2013-01-11 00:52:00,
2013-01-10 17:02:00,37.0,27.0,-100.00,WSW,242,15.0,30.0,66,-99.99,,,-99.99,,2013-01-11 01:02:00,
2013-01-10 17:12:00,37.0,28.0,-100.00,WSW,252,12.0,27.0,71,-99.99,,,-99.99,,2013-01-11 01:12:00,
2013-01-10 17:22:00,36.0,28.0,-100.00,West,281,12.0,28.0,71,-99.99,,,-99.99,,2013-01-11 01:22:00,
2013-01-10 17:33:00,36.0,28.0,-100.00,West,270,10.0,22.0,73,-99.99,,,-99.99,,2013-01-11 01:33:00,
2013-01-10 17:42:00,36.0,29.0,-100.00,West,271,9.0,15.0,74,-99.99,,,-99.99,,2013-01-11 01:42:00,
2013-01-10 17:52:00,36.0,29.0,-100.00,West,275,12.0,22.0,76,-99.99,,,-99.99,,2013-01-11 01:52:00,
2013-01-10 18:02:00,36.0,30.0,-100.00,West,272,9.0,22.0,78,-99.99,,,-99.99,,2013-01-11 02:02:00,
2013-01-10 18:12:00,35.0,29.0,-100.00,West,269,13.0,27.0,80,-99.99,,,-99.99,,2013-01-11 02:12:00,
2013-01-10 18:22:00,35.0,29.0,-100.00,West,269,14.0,24.0,77,-99.99,,,-99.99,,2013-01-11 02:22:00,
2013-01-10 18:32:00,36.0,29.0,-100.00,West,270,10.0,22.0,76,-99.99,,,-99.99,,2013-01-11 02:32:00,
2013-01-10 18:42:00,36.0,29.0,-100.00,WSW,251,12.0,24.0,77,-99.99,,,-99.99,,2013-01-11 02:42:00,
2013-01-10 18:53:00,36.0,29.0,-100.00,West,263,13.0,23.0,76,-99.99,,,-99.99,,2013-01-11 02:53:00,
2013-01-10 19:02:00,36.0,29.0,-100.00,West,266,13.0,23.0,76,-99.99,,,-99.99,,2013-01-11 03:02:00,
2013-01-10 19:12:00,36.0,29.0,-100.00,West,262,9.0,17.0,75,-99.99,,,-99.99,,2013-01-11 03:12:00,
2013-01-10 19:22:00,36.0,29.0,-100.00,West,263,10.0,22.0,77,-99.99,,,-99.99,,2013-01-11 03:22:00,
2013-01-10 19:33:00,36.0,29.0,-100.00,West,270,15.0,28.0,76,-99.99,,,-99.99,,2013-01-11 03:33:00,
2013-01-10 19:42:00,36.0,29.0,-100.00,West,270,15.0,28.0,76,-99.99,,,-99.99,,2013-01-11 03:42:00,
2013-01-10 19:52:00,36.0,29.0,-100.00,West,272,13.0,27.0,74,-99.99,,,-99.99,,2013-01-11 03:52:00,
2013-01-10 20:02:00,36.0,29.0,-100.00,West,272,13.0,27.0,74,-99.99,,,-99.99,,2013-01-11 04:02:00,
2013-01-10 20:12:00,36.0,29.0,-100.00,West,272,12.0,24.0,75,-99.99,,,-99.99,,2013-01-11 04:12:00,
2013-01-10 20:22:00,36.0,29.0,-100.00,West,273,15.0,26.0,74,-99.99,,,-99.99,,2013-01-11 04:22:00,
2013-01-10 20:32:00,36.0,29.0,-100.00,West,275,13.0,23.0,75,-99.99,,,-99.99,,2013-01-11 04:32:00,
2013-01-10 20:42:00,36.0,29.0,-100.00,West,264,12.0,22.0,74,-99.99,,,-99.99,,2013-01-11 04:42:00,
2013-01-10 20:52:00,36.0,29.0,-100.00,West,265,12.0,24.0,74,-99.99,,,-99.99,,2013-01-11 04:52:00,
2013-01-10 21:03:00,36.0,29.0,-100.00,West,270,8.0,20.0,75,-99.99,,,-99.99,,2013-01-11 05:03:00,
2013-01-10 21:12:00,36.0,29.0,-100.00,WSW,255,9.0,29.0,76,-99.99,,,-99.99,,2013-01-11 05:12:00,
2013-01-10 21:22:00,36.0,29.0,-100.00,West,277,13.0,37.0,76,-99.99,,,-99.99,,2013-01-11 05:22:00,
2013-01-10 21:33:00,36.0,29.0,-100.00,West,269,13.0,26.0,77,-99.99,,,-99.99,,2013-01-11 05:33:00,
2013-01-10 21:42:00,36.0,29.0,-100.00,West,269,13.0,26.0,77,-99.99,,,-99.99,,2013-01-11 05:42:00,
2013-01-10 21:52:00,36.0,30.0,-100.00,West,275,12.0,26.0,79,-99.99,,,-99.99,,2013-01-11 05:52:00,
2013-01-10 22:02:00,36.0,30.0,-100.00,WNW,298,7.0,32.0,80,-99.99,,,-99.99,,2013-01-11 06:02:00,
2013-01-10 22:12:00,36.0,30.0,-100.00,NW,316,7.0,17.0,79,-99.99,,,-99.99,,2013-01-11 06:12:00,
2013-01-10 22:22:00,36.0,30.0,-100.00,West,275,9.0,24.0,78,-99.99,,,-99.99,,2013-01-11 06:22:00,
2013-01-10 22:32:00,36.0,29.0,-100.00,WSW,244,8.0,24.0,77,-99.99,,,-99.99,,2013-01-11 06:32:00,
2013-01-10 22:42:00,36.0,29.0,-100.00,West,270,11.0,30.0,75,-99.99,,,-99.99,,2013-01-11 06:42:00,
2013-01-10 22:52:00,36.0,29.0,-100.00,NNW,341,14.0,28.0,76,-99.99,,,-99.99,,2013-01-11 06:52:00,
2013-01-10 23:02:00,36.0,29.0,-100.00,NNW,346,10.0,25.0,75,-99.99,,,-99.99,,2013-01-11 07:02:00,
2013-01-10 23:11:00,36.0,29.0,-100.00,NNW,333,10.0,21.0,74,-99.99,,,-99.99,,2013-01-11 07:11:00,
2013-01-10 23:22:00,35.0,27.0,-100.00,NNW,339,6.0,13.0,73,-99.99,,,-99.99,,2013-01-11 07:22:00,
2013-01-10 23:32:00,35.0,27.0,-100.00,NNW,343,8.0,16.0,73,-99.99,,,-99.99,,2013-01-11 07:32:00,
2013-01-10 23:42:00,35.0,27.0,-100.00,NNW,346,9.0,16.0,73,-99.99,,,-99.99,,2013-01-11 07:42:00,
2013-01-10 23:52:00,35.0,27.0,-100.00,NNW,330,9.0,22.0,73,-99.99,,,-99.99,,2013-01-11 07:52:00,